Adler Suprema — 9HB5331 — position and weather

sailwx.info

Track history (hours):
 
Tides and Currents Weather Stations Pressure Air Temp Water Temp Dewpoint Dewpoint Depression Visibility Wind Speed Wind Dir Waves Ship Positions

Adler Suprema

Last reported at 2018-Jun-13 01:00 UTC. Time now 2018-Jun-18 05:29 UTC.
Position N 45°48' E 013°34'.

Length 23 m.

Type: Pleasure craft. MMSI: 215000515.

Date/timePositionNaut miles runAvg speedWind from/ knotsBaromVisibWave heightAir tempDewpointWater temp
2018-Jun-13 01:00N 45°48' E 013°34'  
2018-Jun-09 03:48N 45°48' E 013°34'0 0.0
2018-Jun-08 20:21N 45°48' E 013°34'0 0.0
2018-Jun-08 19:53N 45°48' E 013°34'0 0.0
2018-Jun-08 19:20N 45°48' E 013°34'0 0.0
2018-Jun-08 18:09N 45°48' E 013°34'1 6.4
2018-Jun-08 18:00N 45°47' E 013°35'2 1.3
2018-Jun-08 16:06N 45°46' E 013°38'111.1
2018-Jun-08 16:00N 45°45' E 013°38'4 1.0
2018-Jun-08 12:02N 45°48' E 013°34'0 5.3
2018-Jun-08 12:00N 45°48' E 013°34'0 0.0
2018-Jun-06 15:23N 45°48' E 013°34'3 6.8
2018-Jun-06 15:00N 45°46' E 013°37'2 0.4
2018-Jun-06 08:59N 45°48' E 013°34'3 7.1
2018-Jun-06 08:30N 45°45' E 013°37'610.2
2018-Jun-06 07:58N 45°39' E 013°39'510.0
2018-Jun-06 07:31N 45°35' E 013°42'3 5.3
2018-Jun-06 07:01N 45°33' E 013°44'0 0.0
2018-Jun-06 06:30N 45°33' E 013°44'0 0.2
2018-Jun-06 06:00N 45°33' E 013°44'5 9.8
2018-Jun-06 05:31N 45°37' E 013°40'11 0.7
2018-Jun-05 13:15N 45°48' E 013°34'0 0.0
2018-Jun-05 12:44N 45°48' E 013°34'0 0.0
2018-Jun-05 11:29N 45°48' E 013°34'  
Track history (hours):
 
Tides and Currents Weather Stations Pressure Air Temp Water Temp Dewpoint Dewpoint Depression Visibility Wind Speed Wind Dir Waves Ship Positions

Adler Suprema

Last reported at 2018-Jun-13 01:00 UTC. Time now 2018-Jun-18 05:29 UTC.
Position N 45°48' E 013°34'.

Length 23 m.

Type: Pleasure craft. MMSI: 215000515.

Date/timePositionNaut miles runAvg speedWind from/ knotsBaromVisibWave heightAir tempDewpointWater temp
2018-Jun-13 01:00N 45°48' E 013°34'  
2018-Jun-09 03:48N 45°48' E 013°34'0 0.0
2018-Jun-08 20:21N 45°48' E 013°34'0 0.0
2018-Jun-08 19:53N 45°48' E 013°34'0 0.0
2018-Jun-08 19:20N 45°48' E 013°34'0 0.0
2018-Jun-08 18:09N 45°48' E 013°34'1 6.4
2018-Jun-08 18:00N 45°47' E 013°35'2 1.3
2018-Jun-08 16:06N 45°46' E 013°38'111.1
2018-Jun-08 16:00N 45°45' E 013°38'4 1.0
2018-Jun-08 12:02N 45°48' E 013°34'0 5.3
2018-Jun-08 12:00N 45°48' E 013°34'0 0.0
2018-Jun-06 15:23N 45°48' E 013°34'3 6.8
2018-Jun-06 15:00N 45°46' E 013°37'2 0.4
2018-Jun-06 08:59N 45°48' E 013°34'3 7.1
2018-Jun-06 08:30N 45°45' E 013°37'610.2
2018-Jun-06 07:58N 45°39' E 013°39'510.0
2018-Jun-06 07:31N 45°35' E 013°42'3 5.3
2018-Jun-06 07:01N 45°33' E 013°44'0 0.0
2018-Jun-06 06:30N 45°33' E 013°44'0 0.2
2018-Jun-06 06:00N 45°33' E 013°44'5 9.8
2018-Jun-06 05:31N 45°37' E 013°40'11 0.7
2018-Jun-05 13:15N 45°48' E 013°34'0 0.0
2018-Jun-05 12:44N 45°48' E 013°34'0 0.0
2018-Jun-05 11:29N 45°48' E 013°34'  

Dump ship's entire track history